Time;durP1;ratioP1;P1;durP2;ratioP2;P2;SDS_P1;SDS_P2;PMS_P1;PMS_P2;Temp;Humidity;BMP_temperature;BMP_pressure;BME280_temperature;BME280_humidity;BME280_pressure;Samples;Min_cycle;Max_cycle;Signal;HPM_P1;HPM_P2
2022/08/26 00:01:48;;;;;;;8.10;7.40;;;20.80;92.50;;;;;;6246859;23;20202;-47
2022/08/26 00:04:15;;;;;;;8.17;7.57;;;20.80;92.50;;;;;;6245342;23;20435;-44
2022/08/26 00:06:41;;;;;;;7.30;6.70;;;20.80;92.50;;;;;;6245896;23;20364;-44
2022/08/26 00:09:06;;;;;;;7.83;7.07;;;20.80;92.50;;;;;;6246368;23;20854;-44
2022/08/26 00:11:32;;;;;;;7.60;7.00;;;20.80;92.90;;;;;;6247673;23;20355;-42
2022/08/26 00:13:58;;;;;;;7.23;6.73;;;20.80;92.60;;;;;;6248231;23;20154;-43
2022/08/26 00:16:25;;;;;;;7.77;7.17;;;20.70;92.50;;;;;;6247715;23;20142;-44
2022/08/26 00:18:51;;;;;;;8.00;7.40;;;20.70;92.60;;;;;;6248020;22;20383;-43
2022/08/26 00:21:17;;;;;;;7.00;6.40;;;20.70;92.70;;;;;;6247328;23;20352;-42
2022/08/26 00:23:43;;;;;;;7.63;6.97;;;20.70;92.70;;;;;;6247912;23;20514;-43
2022/08/26 00:26:09;;;;;;;7.47;6.87;;;20.70;92.70;;;;;;6248540;23;20358;-47
2022/08/26 00:28:35;;;;;;;9.03;8.13;;;20.70;92.80;;;;;;6248571;23;20373;-43
2022/08/26 00:31:00;;;;;;;7.80;7.20;;;20.70;92.80;;;;;;6248549;23;20129;-43
2022/08/26 00:33:26;;;;;;;8.00;7.27;;;20.60;92.80;;;;;;6247244;22;20158;-43
2022/08/26 00:35:52;;;;;;;7.53;7.03;;;20.60;92.90;;;;;;6248578;23;20506;-42
2022/08/26 00:38:17;;;;;;;8.43;7.80;;;20.60;92.80;;;;;;6248557;23;20133;-44
2022/08/26 00:40:46;;;;;;;7.60;7.00;;;20.60;92.90;;;;;;6248785;23;20172;-42
2022/08/26 00:43:12;;;;;;;8.33;7.63;;;20.60;93.00;;;;;;6248094;22;20546;-44
2022/08/26 00:45:52;;;;;;;7.33;6.83;;;20.50;93.00;;;;;;6247315;23;20376;-43
2022/08/26 00:48:20;;;;;;;7.90;7.23;;;20.50;93.20;;;;;;6247186;23;20159;-42
2022/08/26 00:50:54;;;;;;;7.90;7.20;;;20.40;93.20;;;;;;6247832;23;20451;-46
2022/08/26 00:53:20;;;;;;;7.77;7.17;;;20.40;93.30;;;;;;6246157;23;20385;-43
2022/08/26 00:55:58;;;;;;;7.53;6.93;;;20.40;93.30;;;;;;6247456;23;20362;-42
2022/08/26 00:58:26;;;;;;;7.93;7.23;;;20.40;93.40;;;;;;6246839;23;20437;-46
2022/08/26 01:00:52;;;;;;;8.47;7.80;;;20.30;93.40;;;;;;6248644;23;20447;-44
2022/08/26 01:03:21;;;;;;;7.80;7.17;;;20.30;93.40;;;;;;6248285;23;20711;-44
2022/08/26 01:05:47;;;;;;;7.43;6.83;;;20.30;93.50;;;;;;6247697;23;20673;-43
2022/08/26 01:08:13;;;;;;;8.07;7.47;;;20.20;93.50;;;;;;6248176;23;20349;-43
2022/08/26 01:10:38;;;;;;;7.53;7.03;;;20.20;93.60;;;;;;6248655;23;20154;-42
2022/08/26 01:13:10;;;;;;;7.77;7.17;;;20.20;93.70;;;;;;6248483;23;20374;-44
2022/08/26 01:15:48;;;;;;;7.47;6.87;;;20.20;93.70;;;;;;6249155;23;20423;-43
2022/08/26 01:18:14;;;;;;;8.20;7.50;;;20.20;93.70;;;;;;6248754;23;20630;-44
2022/08/26 01:20:58;;;;;;;8.20;7.60;;;20.20;93.70;;;;;;6248752;23;20390;-42
2022/08/26 01:23:28;;;;;;;7.80;7.20;;;20.20;93.70;;;;;;6248584;23;20169;-44
2022/08/26 01:25:58;;;;;;;7.90;7.30;;;20.20;93.60;;;;;;6248326;23;20408;-43
2022/08/26 01:28:28;;;;;;;8.50;7.80;;;20.20;93.70;;;;;;6246808;23;20356;-46
2022/08/26 01:30:54;;;;;;;7.73;7.03;;;20.10;93.80;;;;;;6248835;23;20406;-45
2022/08/26 01:33:26;;;;;;;7.90;7.23;;;20.10;93.90;;;;;;6246916;23;20422;-42
2022/08/26 01:35:52;;;;;;;7.80;7.17;;;20.00;94.30;;;;;;6246969;23;20390;-44
2022/08/26 01:38:18;;;;;;;9.00;8.20;;;20.00;94.10;;;;;;6247553;23;20441;-45
2022/08/26 01:40:44;;;;;;;7.57;6.97;;;20.00;94.10;;;;;;6247311;23;20396;-43
2022/08/26 01:43:15;;;;;;;7.67;7.17;;;20.00;94.10;;;;;;6247695;23;20472;-44
2022/08/26 01:45:42;;;;;;;8.10;7.40;;;20.00;94.20;;;;;;6247499;23;20805;-46
2022/08/26 01:48:11;;;;;;;7.33;6.80;;;20.00;94.50;;;;;;6246907;23;20425;-44
2022/08/26 01:50:38;;;;;;;8.50;7.90;;;20.00;94.20;;;;;;6247141;23;20942;-42
2022/08/26 01:53:37;;;;;;;7.93;7.20;;;20.00;94.20;;;;;;6248085;23;20433;-43
2022/08/26 01:56:05;;;;;;;8.37;7.67;;;20.00;94.20;;;;;;6248860;23;20378;-43
2022/08/26 01:58:47;;;;;;;8.90;8.20;;;19.90;94.20;;;;;;6250086;23;20488;-45
2022/08/26 02:01:13;;;;;;;8.40;7.80;;;19.90;94.20;;;;;;6249094;23;20380;-45
2022/08/26 02:03:51;;;;;;;7.93;7.33;;;19.90;94.20;;;;;;6250031;23;20521;-45
2022/08/26 02:06:18;;;;;;;8.20;7.60;;;19.90;94.30;;;;;;6249551;23;20390;-44
2022/08/26 02:08:47;;;;;;;9.57;8.77;;;19.80;94.30;;;;;;6250079;23;20398;-44
2022/08/26 02:11:13;;;;;;;9.60;8.90;;;19.80;94.50;;;;;;6249034;23;20461;-46
2022/08/26 02:13:42;;;;;;;8.70;8.00;;;19.80;94.50;;;;;;6249959;23;20371;-46
2022/08/26 02:16:08;;;;;;;7.77;7.17;;;19.80;94.50;;;;;;6251197;23;20846;-45
2022/08/26 02:18:37;;;;;;;8.90;8.23;;;19.70;94.50;;;;;;6249596;23;20359;-42
2022/08/26 02:21:03;;;;;;;8.27;7.60;;;19.70;94.50;;;;;;6249206;23;20397;-43
2022/08/26 02:23:28;;;;;;;7.57;6.97;;;19.70;94.50;;;;;;6250298;23;20403;-42
2022/08/26 02:26:17;;;;;;;8.70;8.10;;;19.70;94.70;;;;;;6249028;23;20389;-45
2022/08/26 02:29:07;;;;;;;7.33;6.83;;;19.60;94.70;;;;;;6249865;23;20166;-44
2022/08/26 02:31:33;;;;;;;7.60;7.10;;;19.60;94.70;;;;;;6207450;22;20393;-44
2022/08/26 02:34:13;;;;;;;8.23;7.63;;;19.60;94.70;;;;;;6249882;23;20427;-44
2022/08/26 02:36:39;;;;;;;7.47;6.97;;;19.60;94.70;;;;;;6250555;23;20235;-44
2022/08/26 02:39:05;;;;;;;9.30;8.40;;;19.60;94.70;;;;;;6249974;23;20357;-42
2022/08/26 02:41:31;;;;;;;8.30;7.70;;;19.60;94.70;;;;;;6249953;23;20424;-42
2022/08/26 02:43:57;;;;;;;8.70;8.00;;;19.60;94.70;;;;;;6250013;23;20407;-42
2022/08/26 02:46:23;;;;;;;8.00;7.40;;;19.60;94.70;;;;;;6249496;23;20427;-44
2022/08/26 02:48:49;;;;;;;8.50;7.80;;;19.60;94.80;;;;;;6249456;23;20144;-43
2022/08/26 02:51:14;;;;;;;8.73;8.03;;;19.60;94.80;;;;;;6250121;23;20201;-44
2022/08/26 02:53:40;;;;;;;8.67;7.97;;;19.60;94.90;;;;;;6247934;23;20398;-45
2022/08/26 02:56:09;;;;;;;8.67;7.97;;;19.60;94.90;;;;;;6246532;23;20156;-42
2022/08/26 02:58:34;;;;;;;8.70;8.10;;;19.60;95.00;;;;;;6246657;23;20147;-43
2022/08/26 03:01:00;;;;;;;8.30;7.70;;;19.60;95.10;;;;;;6246146;23;20814;-45
2022/08/26 03:03:26;;;;;;;8.47;7.87;;;19.60;95.10;;;;;;6245125;23;20477;-44
2022/08/26 03:05:52;;;;;;;8.73;8.03;;;19.50;95.00;;;;;;6245934;23;20388;-42
2022/08/26 03:08:19;;;;;;;7.77;7.07;;;19.50;95.10;;;;;;6246867;23;20369;-44
2022/08/26 03:10:46;;;;;;;8.97;8.27;;;19.40;95.40;;;;;;6249163;23;20423;-44
2022/08/26 03:13:12;;;;;;;9.20;8.50;;;19.30;95.90;;;;;;6249819;22;20367;-43
2022/08/26 03:15:38;;;;;;;7.90;7.30;;;19.30;95.70;;;;;;6249090;22;20400;-43
2022/08/26 03:18:04;;;;;;;9.13;8.43;;;19.20;95.60;;;;;;6248519;23;20767;-43
2022/08/26 03:20:30;;;;;;;8.60;7.97;;;19.20;95.60;;;;;;6247519;23;20394;-42
2022/08/26 03:22:56;;;;;;;8.40;7.70;;;19.20;95.60;;;;;;6247886;23;20412;-42
2022/08/26 03:25:22;;;;;;;8.13;7.50;;;19.20;95.70;;;;;;6248476;23;20400;-45
2022/08/26 03:27:48;;;;;;;8.07;7.47;;;19.20;95.70;;;;;;6248547;23;20370;-42
2022/08/26 03:32:59;;;;;;;8.90;8.20;;;19.20;95.80;;;;;;6248197;23;20145;-46
2022/08/26 03:35:24;;;;;;;9.17;8.30;;;19.20;95.90;;;;;;6248656;23;20462;-44
2022/08/26 03:37:51;;;;;;;8.93;8.23;;;19.20;95.90;;;;;;6248606;23;20147;-42
2022/08/26 03:40:16;;;;;;;9.70;8.90;;;19.20;95.80;;;;;;6248853;23;20158;-46
2022/08/26 03:42:43;;;;;;;8.30;7.70;;;19.20;95.80;;;;;;6246834;23;20408;-43
2022/08/26 03:45:10;;;;;;;8.93;8.23;;;19.20;95.80;;;;;;6246514;23;20156;-46
2022/08/26 03:47:36;;;;;;;8.17;7.57;;;19.20;95.70;;;;;;6245613;23;20444;-44
2022/08/26 03:50:04;;;;;;;8.60;7.90;;;19.20;95.70;;;;;;6246755;23;20457;-45
2022/08/26 03:52:30;;;;;;;9.13;8.40;;;19.20;95.70;;;;;;6247686;23;20411;-45
2022/08/26 03:54:55;;;;;;;8.10;7.50;;;19.20;95.80;;;;;;6246123;23;20786;-42
2022/08/26 03:57:21;;;;;;;8.70;8.00;;;19.20;95.80;;;;;;6245517;23;20405;-43
2022/08/26 03:59:47;;;;;;;9.20;8.50;;;19.20;95.80;;;;;;6244645;23;20168;-44
2022/08/26 04:02:12;;;;;;;8.50;7.70;;;19.10;95.70;;;;;;6244713;23;20513;-48
2022/08/26 04:04:38;;;;;;;9.37;8.67;;;19.10;95.80;;;;;;6246534;23;20576;-44
2022/08/26 04:07:04;;;;;;;8.47;7.77;;;19.20;95.80;;;;;;6246609;23;20158;-43
2022/08/26 04:09:29;;;;;;;8.77;8.07;;;19.20;96.20;;;;;;6246244;23;20454;-44
2022/08/26 04:11:57;;;;;;;8.13;7.43;;;19.10;95.80;;;;;;6248316;23;20232;-44
2022/08/26 04:14:24;;;;;;;9.17;8.43;;;19.10;95.90;;;;;;6247892;23;20129;-43
2022/08/26 04:16:52;;;;;;;8.70;7.93;;;19.10;95.80;;;;;;6246642;23;20380;-43
2022/08/26 04:19:18;;;;;;;8.40;7.80;;;19.00;95.90;;;;;;6245089;23;20412;-45
2022/08/26 04:21:45;;;;;;;9.77;8.87;;;19.00;96.00;;;;;;6246127;23;20473;-44
2022/08/26 04:24:12;;;;;;;8.33;7.63;;;19.00;96.10;;;;;;6245169;23;20370;-45
2022/08/26 04:26:38;;;;;;;9.17;8.47;;;19.00;96.10;;;;;;6246996;22;20418;-43
2022/08/26 04:29:07;;;;;;;9.07;8.37;;;19.00;96.20;;;;;;6246109;23;20988;-46
2022/08/26 04:31:34;;;;;;;9.73;8.93;;;19.00;96.20;;;;;;6247629;23;20550;-45
2022/08/26 04:34:00;;;;;;;8.20;7.60;;;19.00;96.20;;;;;;6247987;23;20430;-45
2022/08/26 04:36:26;;;;;;;8.17;7.57;;;19.00;96.10;;;;;;6248130;23;20387;-44
2022/08/26 04:38:52;;;;;;;9.20;8.40;;;19.10;95.90;;;;;;6247665;23;20373;-45
2022/08/26 04:41:18;;;;;;;15.43;11.50;;;19.10;95.70;;;;;;6247089;23;20539;-47
2022/08/26 04:43:45;;;;;;;34.13;16.77;;;19.20;95.70;;;;;;6247121;23;20184;-46
2022/08/26 04:46:13;;;;;;;30.03;16.17;;;19.20;95.70;;;;;;6247909;23;20367;-47
2022/08/26 04:48:39;;;;;;;17.00;12.03;;;19.20;95.70;;;;;;6245014;23;20377;-46
2022/08/26 04:51:05;;;;;;;14.80;11.10;;;19.20;95.60;;;;;;6247734;23;20351;-44
2022/08/26 04:53:31;;;;;;;10.47;9.40;;;19.20;95.50;;;;;;6246495;23;20426;-45
2022/08/26 04:55:57;;;;;;;8.83;8.13;;;19.20;95.40;;;;;;6247565;23;20225;-46
2022/08/26 04:58:23;;;;;;;9.47;8.70;;;19.10;95.40;;;;;;6245007;23;20453;-45
2022/08/26 05:00:51;;;;;;;10.03;9.17;;;19.00;95.50;;;;;;6244126;23;20144;-44
2022/08/26 05:03:17;;;;;;;9.63;8.83;;;18.90;95.70;;;;;;6245019;23;20425;-47
2022/08/26 05:05:45;;;;;;;8.80;8.10;;;18.80;96.00;;;;;;6247019;23;20367;-44
2022/08/26 05:08:11;;;;;;;9.00;8.30;;;18.70;96.60;;;;;;6244653;22;20445;-45
2022/08/26 05:10:39;;;;;;;9.53;8.70;;;18.60;96.40;;;;;;6243445;23;20345;-46
2022/08/26 05:13:05;;;;;;;10.20;9.40;;;18.50;96.60;;;;;;6243277;23;20386;-44
2022/08/26 05:15:31;;;;;;;10.23;9.33;;;18.50;96.80;;;;;;6242240;23;20383;-45
2022/08/26 05:17:58;;;;;;;9.50;8.60;;;18.50;97.00;;;;;;6244225;23;20196;-47
2022/08/26 05:20:24;;;;;;;8.30;7.70;;;18.40;97.00;;;;;;6241664;23;20148;-47
2022/08/26 05:22:49;;;;;;;15.03;9.23;;;18.40;97.20;;;;;;6241594;23;20462;-45
2022/08/26 05:25:16;;;;;;;10.77;9.97;;;18.40;97.20;;;;;;6244481;23;20396;-45
2022/08/26 05:27:41;;;;;;;11.13;10.10;;;18.40;97.30;;;;;;6247131;23;20159;-47
2022/08/26 05:30:08;;;;;;;10.07;9.00;;;18.40;97.50;;;;;;6247699;23;20458;-45
2022/08/26 05:32:33;;;;;;;10.97;10.07;;;18.40;97.50;;;;;;6247446;23;20138;-43
2022/08/26 05:34:59;;;;;;;10.03;9.23;;;18.40;97.50;;;;;;6246425;23;20496;-45
2022/08/26 05:37:25;;;;;;;9.53;8.77;;;18.30;97.60;;;;;;6246827;23;20185;-45
2022/08/26 05:39:50;;;;;;;10.00;9.03;;;18.30;97.70;;;;;;6247804;23;20168;-44
2022/08/26 05:42:16;;;;;;;9.87;9.07;;;18.30;97.80;;;;;;6247962;23;20163;-44
2022/08/26 05:44:41;;;;;;;10.33;9.53;;;18.30;97.90;;;;;;6248160;23;20166;-46
2022/08/26 05:47:07;;;;;;;10.57;9.67;;;18.30;98.00;;;;;;6246478;23;20133;-43
2022/08/26 05:49:33;;;;;;;10.60;9.70;;;18.30;98.00;;;;;;6248433;23;20211;-46
2022/08/26 05:51:58;;;;;;;9.70;8.90;;;18.30;98.20;;;;;;6246687;23;20213;-46
2022/08/26 05:54:24;;;;;;;11.20;10.30;;;18.30;98.30;;;;;;6247242;23;20157;-43
2022/08/26 05:56:50;;;;;;;11.70;10.50;;;18.30;98.20;;;;;;6248034;23;20131;-43
2022/08/26 05:59:16;;;;;;;10.10;9.30;;;18.30;98.20;;;;;;6248496;23;20156;-45
2022/08/26 06:01:42;;;;;;;10.57;9.67;;;18.30;98.20;;;;;;6246809;23;20391;-46
2022/08/26 06:04:08;;;;;;;10.40;9.50;;;18.40;98.20;;;;;;6248416;23;20523;-46
2022/08/26 06:06:36;;;;;;;10.43;9.60;;;18.60;98.20;;;;;;6247153;23;20405;-44
2022/08/26 06:09:04;;;;;;;10.33;9.53;;;18.60;98.10;;;;;;6247954;23;20894;-44
2022/08/26 06:11:31;;;;;;;11.03;10.03;;;18.80;98.20;;;;;;6247994;23;20694;-44
2022/08/26 06:13:59;;;;;;;11.20;10.20;;;18.90;98.10;;;;;;6248902;23;20424;-48
2022/08/26 06:16:25;;;;;;;11.50;10.50;;;19.10;98.20;;;;;;6248767;23;20368;-44
2022/08/26 06:18:52;;;;;;;11.73;10.73;;;19.30;97.60;;;;;;6248599;23;20386;-46
2022/08/26 06:21:27;;;;;;;10.13;9.33;;;19.50;97.20;;;;;;6246721;23;20376;-46
2022/08/26 06:26:44;;;;;;;10.37;9.40;;;19.80;96.80;;;;;;6245430;23;20413;-48
2022/08/26 06:29:10;;;;;;;10.47;9.67;;;20.00;96.60;;;;;;6246760;23;20391;-44
2022/08/26 06:31:36;;;;;;;10.93;10.03;;;20.20;96.50;;;;;;6248951;23;20358;-49
2022/08/26 06:34:03;;;;;;;10.57;9.67;;;20.40;96.00;;;;;;6247304;23;20247;-45
2022/08/26 06:36:29;;;;;;;9.47;8.77;;;20.60;95.60;;;;;;6246922;23;20534;-44
2022/08/26 06:38:59;;;;;;;11.63;9.30;;;20.70;95.00;;;;;;6245131;23;20398;-44
2022/08/26 06:41:25;;;;;;;10.23;9.30;;;20.90;94.60;;;;;;6245194;23;20370;-44
2022/08/26 06:43:51;;;;;;;10.37;9.37;;;21.00;94.50;;;;;;6244001;23;20428;-45
2022/08/26 06:46:18;;;;;;;9.57;8.87;;;21.20;94.40;;;;;;6246599;23;20355;-45
2022/08/26 06:48:44;;;;;;;9.20;8.40;;;21.40;94.00;;;;;;6245239;23;20153;-44
2022/08/26 06:51:12;;;;;;;8.83;8.13;;;21.60;93.70;;;;;;6247297;22;20364;-48
2022/08/26 06:53:39;;;;;;;8.23;7.63;;;21.80;93.30;;;;;;6248625;23;20401;-43
2022/08/26 06:56:06;;;;;;;9.60;8.80;;;22.10;92.70;;;;;;6245813;23;20361;-46
2022/08/26 06:58:33;;;;;;;9.87;9.07;;;22.30;92.20;;;;;;6245343;23;20456;-45
2022/08/26 07:00:59;;;;;;;8.97;8.17;;;22.50;91.90;;;;;;6243448;23;20673;-45
2022/08/26 07:03:25;;;;;;;9.87;9.10;;;22.60;91.60;;;;;;6243069;23;20427;-45
2022/08/26 07:05:50;;;;;;;8.70;8.03;;;22.90;91.60;;;;;;6242558;23;20770;-47
2022/08/26 07:08:16;;;;;;;9.20;8.20;;;23.00;91.20;;;;;;6242292;23;20143;-46
2022/08/26 07:10:42;;;;;;;9.13;8.50;;;23.30;90.80;;;;;;6245364;23;20207;-46
2022/08/26 07:13:09;;;;;;;8.70;8.07;;;23.50;90.40;;;;;;6245352;22;20144;-45
2022/08/26 07:15:38;;;;;;;8.53;7.90;;;23.80;90.00;;;;;;6243021;23;20451;-46
2022/08/26 07:18:04;;;;;;;8.30;7.70;;;24.10;88.90;;;;;;6242229;23;20696;-45
2022/08/26 07:20:30;;;;;;;8.90;8.17;;;24.40;87.60;;;;;;6243114;23;20419;-44
2022/08/26 07:22:57;;;;;;;9.53;7.40;;;24.70;86.30;;;;;;6245833;23;20248;-50
2022/08/26 07:25:23;;;;;;;8.97;8.27;;;24.90;84.90;;;;;;6244937;23;20137;-45
2022/08/26 07:27:49;;;;;;;8.57;7.97;;;25.10;83.50;;;;;;6247994;23;20364;-45
2022/08/26 07:30:15;;;;;;;9.10;8.33;;;25.30;82.50;;;;;;6247135;23;20380;-46
2022/08/26 07:32:40;;;;;;;15.70;9.37;;;25.40;81.90;;;;;;6246236;23;20222;-47
2022/08/26 07:35:06;;;;;;;9.80;7.97;;;25.60;80.60;;;;;;6247307;23;20213;-45
2022/08/26 07:37:32;;;;;;;9.97;9.07;;;25.60;79.90;;;;;;6246921;23;20161;-44
2022/08/26 07:39:58;;;;;;;9.10;8.20;;;25.80;79.60;;;;;;6246446;23;20403;-45
2022/08/26 07:42:23;;;;;;;11.57;10.57;;;26.00;79.00;;;;;;6246161;23;20173;-45
2022/08/26 07:44:49;;;;;;;12.00;9.03;;;26.30;77.30;;;;;;6248545;23;20157;-45
2022/08/26 07:47:16;;;;;;;9.33;8.43;;;26.40;76.60;;;;;;6247426;23;20130;-46
2022/08/26 07:49:41;;;;;;;10.13;9.40;;;26.60;75.70;;;;;;6248680;23;20153;-44
2022/08/26 07:52:08;;;;;;;10.17;9.07;;;26.90;74.00;;;;;;6248126;23;21010;-46
2022/08/26 07:54:36;;;;;;;9.13;7.93;;;26.90;72.70;;;;;;6248456;23;20195;-45
2022/08/26 07:57:02;;;;;;;8.10;7.50;;;27.20;72.50;;;;;;6247516;23;20403;-46
2022/08/26 07:59:28;;;;;;;7.77;7.17;;;27.40;71.10;;;;;;6246390;23;20395;-46
2022/08/26 08:01:57;;;;;;;8.70;7.90;;;27.70;69.30;;;;;;6244214;23;20380;-47
2022/08/26 08:04:27;;;;;;;8.93;8.20;;;28.00;69.10;;;;;;6246866;23;20507;-46
2022/08/26 08:06:54;;;;;;;9.40;8.47;;;28.30;67.90;;;;;;6246037;23;20368;-48
2022/08/26 08:09:19;;;;;;;8.93;8.13;;;28.70;67.00;;;;;;6243840;23;20481;-47
2022/08/26 08:11:45;;;;;;;7.70;7.10;;;28.90;64.70;;;;;;6245803;23;20357;-47
2022/08/26 08:14:11;;;;;;;8.13;7.07;;;29.10;63.80;;;;;;6246788;23;20536;-44
2022/08/26 08:16:37;;;;;;;8.80;7.97;;;29.20;61.70;;;;;;6247754;23;20143;-47
2022/08/26 08:19:03;;;;;;;7.73;7.10;;;29.00;61.10;;;;;;6247438;23;20380;-49
2022/08/26 08:21:29;;;;;;;8.23;7.27;;;28.70;61.20;;;;;;6246811;23;20452;-46
2022/08/26 08:23:56;;;;;;;7.57;6.97;;;28.40;61.80;;;;;;6246300;23;20184;-47
2022/08/26 08:26:23;;;;;;;8.10;7.40;;;28.20;62.30;;;;;;6245555;23;20369;-45
2022/08/26 08:28:51;;;;;;;8.73;8.00;;;28.00;62.50;;;;;;6245841;23;20448;-45
2022/08/26 08:31:23;;;;;;;8.43;7.60;;;27.90;63.10;;;;;;6246066;23;20360;-47
2022/08/26 08:33:49;;;;;;;8.00;7.30;;;27.80;63.60;;;;;;6245886;23;20416;-44
2022/08/26 08:36:15;;;;;;;8.70;7.40;;;27.70;63.60;;;;;;6244389;23;20514;-46
2022/08/26 08:38:44;;;;;;;8.80;7.90;;;27.70;63.90;;;;;;6245147;23;20170;-47
2022/08/26 08:41:37;;;;;;;8.50;7.60;;;27.70;63.90;;;;;;6244728;22;20455;-46
2022/08/26 08:44:03;;;;;;;8.47;7.77;;;27.80;63.90;;;;;;6245233;23;20835;-46
2022/08/26 08:46:29;;;;;;;8.90;8.00;;;28.00;63.30;;;;;;6244489;23;20830;-49
2022/08/26 08:48:57;;;;;;;9.30;8.50;;;28.30;62.40;;;;;;6244656;23;20351;-48
2022/08/26 08:51:29;;;;;;;9.10;8.23;;;28.50;61.80;;;;;;6245280;23;20490;-47
2022/08/26 08:53:55;;;;;;;8.37;7.67;;;28.80;61.20;;;;;;6244220;23;20370;-44
2022/08/26 08:56:35;;;;;;;8.50;7.33;;;29.40;60.20;;;;;;6245402;23;20380;-45
2022/08/26 08:59:13;;;;;;;9.70;8.17;;;29.90;58.80;;;;;;6245203;23;20398;-47
2022/08/26 09:02:01;;;;;;;14.60;9.07;;;30.50;58.10;;;;;;6245131;23;20497;-46
2022/08/26 09:04:53;;;;;;;8.83;8.03;;;31.00;56.90;;;;;;6246092;23;20393;-46
2022/08/26 09:07:22;;;;;;;8.37;7.63;;;31.20;55.40;;;;;;6234439;23;20691;-45
2022/08/26 09:09:58;;;;;;;10.30;8.83;;;31.60;55.10;;;;;;6245864;23;20639;-46
2022/08/26 09:12:27;;;;;;;10.03;8.83;;;31.70;53.90;;;;;;6245493;23;20362;-48
2022/08/26 09:14:59;;;;;;;9.17;8.33;;;31.40;53.90;;;;;;6247927;23;20365;-45
2022/08/26 09:17:35;;;;;;;11.23;10.10;;;31.10;54.40;;;;;;6247685;23;20463;-47
2022/08/26 09:20:41;;;;;;;9.70;8.63;;;30.80;54.90;;;;;;6249029;23;20456;-45
2022/08/26 09:23:09;;;;;;;8.80;8.10;;;30.60;55.20;;;;;;6234479;23;20443;-45
2022/08/26 09:25:48;;;;;;;9.80;7.80;;;30.40;55.30;;;;;;6247757;23;20748;-46
2022/08/26 09:28:20;;;;;;;10.07;9.03;;;30.20;55.30;;;;;;6247837;23;20386;-45
2022/08/26 09:31:09;;;;;;;8.83;7.50;;;30.10;56.00;;;;;;6245062;23;20363;-45
2022/08/26 09:33:34;;;;;;;9.70;8.77;;;30.00;55.70;;;;;;6244080;23;20415;-46
2022/08/26 09:36:21;;;;;;;9.57;8.67;;;29.90;56.00;;;;;;6247360;23;20413;-51
2022/08/26 09:38:49;;;;;;;10.50;9.40;;;29.90;56.20;;;;;;6246685;23;20173;-44
2022/08/26 09:41:25;;;;;;;10.17;9.17;;;29.90;56.30;;;;;;6246428;23;20407;-47
2022/08/26 09:44:07;;;;;;;12.33;9.10;;;29.90;55.90;;;;;;6244161;23;20422;-48
2022/08/26 09:46:32;;;;;;;9.83;8.43;;;30.30;55.80;;;;;;6245914;23;20828;-47
2022/08/26 09:49:22;;;;;;;15.83;9.83;;;30.90;55.50;;;;;;6242136;23;20439;-48
2022/08/26 09:52:06;;;;;;;11.40;7.93;;;31.80;52.90;;;;;;6242200;23;20157;-50
2022/08/26 09:54:32;;;;;;;11.40;10.30;;;32.60;52.60;;;;;;6243935;23;20443;-47
2022/08/26 09:57:19;;;;;;;11.17;8.70;;;33.30;51.10;;;;;;6242857;23;20884;-47
2022/08/26 09:59:48;;;;;;;10.07;8.97;;;34.00;50.20;;;;;;6242865;23;20492;-46
2022/08/26 10:02:43;;;;;;;10.13;9.20;;;34.60;48.50;;;;;;6241250;23;20364;-47
2022/08/26 10:05:16;;;;;;;9.10;8.30;;;35.20;47.40;;;;;;6219510;23;20642;-46
2022/08/26 10:07:46;;;;;;;10.47;7.93;;;35.70;46.20;;;;;;6246065;23;20368;-46
2022/08/26 10:10:19;;;;;;;9.93;8.87;;;35.90;45.30;;;;;;6243777;23;20739;-47
2022/08/26 10:13:13;;;;;;;8.73;8.03;;;35.80;45.00;;;;;;6241636;23;20467;-46
2022/08/26 10:15:56;;;;;;;8.87;8.00;;;35.10;44.50;;;;;;6238753;23;20400;-49
2022/08/26 10:18:32;;;;;;;10.40;8.50;;;34.60;43.90;;;;;;6246440;23;20433;-46
2022/08/26 10:21:15;;;;;;;9.77;8.67;;;34.00;44.80;;;;;;6242959;22;20335;-46
2022/08/26 10:23:49;;;;;;;9.40;8.43;;;33.70;46.00;;;;;;6242933;23;20526;-48
2022/08/26 10:26:36;;;;;;;9.70;8.17;;;33.50;46.70;;;;;;6246958;23;20565;-49
2022/08/26 10:29:21;;;;;;;9.13;8.23;;;33.10;45.80;;;;;;6246840;23;20813;-46
2022/08/26 10:32:01;;;;;;;8.57;7.80;;;32.60;46.30;;;;;;6245167;23;20383;-47
2022/08/26 10:34:27;;;;;;;8.93;8.03;;;32.20;47.30;;;;;;6246644;23;20444;-46
2022/08/26 10:37:03;;;;;;;11.23;8.40;;;32.20;47.10;;;;;;6248594;23;20354;-46
2022/08/26 10:39:29;;;;;;;10.23;9.00;;;32.40;46.90;;;;;;6247732;23;20133;-48
2022/08/26 10:41:59;;;;;;;10.13;8.93;;;33.00;46.60;;;;;;6247029;23;20375;-47
2022/08/26 10:44:26;;;;;;;11.67;9.57;;;33.00;46.30;;;;;;6248279;23;20430;-49
2022/08/26 10:47:08;;;;;;;10.40;9.23;;;32.80;46.50;;;;;;6248126;23;20353;-47
2022/08/26 10:49:34;;;;;;;9.90;9.00;;;32.30;47.10;;;;;;6246043;23;20384;-46
2022/08/26 10:51:59;;;;;;;9.67;8.37;;;31.80;47.50;;;;;;6245999;23;20449;-48
2022/08/26 10:54:27;;;;;;;10.47;9.37;;;31.40;48.10;;;;;;6247360;23;20131;-46
2022/08/26 10:56:58;;;;;;;9.83;8.87;;;31.10;48.30;;;;;;6245998;23;20191;-49
2022/08/26 10:59:42;;;;;;;10.17;9.17;;;30.70;48.70;;;;;;6245533;23;20359;-47
2022/08/26 11:02:30;;;;;;;9.97;9.07;;;30.50;49.30;;;;;;6244026;23;20389;-48
2022/08/26 11:04:57;;;;;;;11.00;9.20;;;30.50;49.90;;;;;;6247021;23;20477;-50
2022/08/26 11:07:35;;;;;;;11.40;8.87;;;30.70;49.40;;;;;;6244885;23;20362;-45
2022/08/26 11:10:15;;;;;;;12.63;8.93;;;30.60;49.00;;;;;;6245053;23;20729;-46
2022/08/26 11:12:40;;;;;;;8.70;8.00;;;30.70;49.60;;;;;;6247463;23;20378;-47
2022/08/26 11:15:10;;;;;;;10.30;9.40;;;30.90;50.00;;;;;;6246315;23;20383;-48
2022/08/26 11:17:45;;;;;;;9.90;8.90;;;31.30;49.30;;;;;;6245780;23;20431;-48
2022/08/26 11:20:26;;;;;;;7.90;7.20;;;31.80;47.80;;;;;;6244553;23;20388;-47
2022/08/26 11:22:54;;;;;;;8.17;7.33;;;32.10;46.80;;;;;;6246299;23;20423;-46
2022/08/26 11:25:21;;;;;;;8.10;7.40;;;32.40;46.30;;;;;;6245025;23;20427;-47
2022/08/26 11:27:46;;;;;;;8.30;7.50;;;33.20;46.20;;;;;;6243006;23;20402;-48
2022/08/26 11:30:12;;;;;;;9.30;7.33;;;34.30;45.70;;;;;;6241924;23;20376;-47
2022/08/26 11:32:38;;;;;;;8.17;7.37;;;35.00;43.40;;;;;;6245183;23;20156;-47
2022/08/26 11:35:05;;;;;;;9.23;7.97;;;35.10;42.60;;;;;;6244674;23;20190;-47
2022/08/26 11:37:36;;;;;;;10.00;9.07;;;34.80;43.20;;;;;;6242853;23;20264;-48
2022/08/26 11:40:07;;;;;;;9.80;8.87;;;34.60;43.70;;;;;;6217036;23;20378;-46
2022/08/26 11:42:40;;;;;;;9.30;8.50;;;34.30;44.10;;;;;;6244282;22;20395;-47
2022/08/26 11:45:21;;;;;;;9.30;8.40;;;34.30;44.00;;;;;;6243827;23;20474;-46
2022/08/26 11:47:47;;;;;;;9.80;8.40;;;34.10;43.30;;;;;;6242900;23;21174;-47
2022/08/26 11:50:22;;;;;;;8.77;7.97;;;34.30;43.60;;;;;;6243498;23;20748;-47
2022/08/26 11:53:00;;;;;;;14.23;8.20;;;35.00;43.40;;;;;;6245003;23;20403;-48
2022/08/26 11:55:27;;;;;;;8.90;8.00;;;36.10;42.30;;;;;;6245267;23;20376;-48
2022/08/26 11:57:55;;;;;;;8.50;7.70;;;36.90;40.60;;;;;;6246239;23;20365;-48
2022/08/26 12:00:24;;;;;;;9.07;8.37;;;37.60;39.90;;;;;;6245543;23;20900;-50
2022/08/26 12:02:50;;;;;;;9.13;7.77;;;38.30;38.50;;;;;;6245641;23;20462;-49
2022/08/26 12:05:24;;;;;;;8.60;7.80;;;38.80;37.90;;;;;;6243826;23;20781;-45
2022/08/26 12:07:50;;;;;;;7.50;6.90;;;39.30;36.80;;;;;;6242263;23;20139;-45
2022/08/26 12:10:28;;;;;;;8.90;8.00;;;39.70;36.10;;;;;;6243408;23;20401;-48
2022/08/26 12:12:56;;;;;;;10.57;8.03;;;40.10;35.70;;;;;;6243095;23;20433;-48
2022/08/26 12:15:22;;;;;;;8.80;8.00;;;40.00;34.70;;;;;;6243970;23;20465;-48
2022/08/26 12:17:52;;;;;;;8.20;7.40;;;40.10;35.00;;;;;;6243148;23;20363;-47
2022/08/26 12:20:17;;;;;;;9.43;6.63;;;40.00;34.60;;;;;;6245635;23;20788;-47
2022/08/26 12:22:44;;;;;;;7.30;6.70;;;40.00;34.90;;;;;;6244848;23;20406;-49
2022/08/26 12:25:10;;;;;;;8.40;6.97;;;40.00;34.60;;;;;;6243481;23;20155;-52
2022/08/26 12:27:39;;;;;;;7.70;7.00;;;40.00;33.80;;;;;;6245838;23;20422;-47
2022/08/26 12:30:12;;;;;;;10.13;7.27;;;40.10;33.50;;;;;;6241861;23;20441;-45
2022/08/26 12:32:42;;;;;;;8.73;7.37;;;40.40;33.40;;;;;;6238104;23;20859;-48
2022/08/26 12:35:16;;;;;;;7.70;7.17;;;40.50;33.00;;;;;;6244132;23;20428;-47
2022/08/26 12:37:45;;;;;;;7.67;6.90;;;40.10;32.80;;;;;;6245648;23;20366;-48
2022/08/26 12:40:29;;;;;;;8.20;7.40;;;39.60;33.40;;;;;;6242197;22;20375;-47
2022/08/26 12:42:59;;;;;;;9.50;7.30;;;38.90;33.70;;;;;;6243716;23;20832;-47
2022/08/26 12:45:42;;;;;;;7.73;7.00;;;38.20;34.00;;;;;;6242807;23;20359;-48
2022/08/26 12:48:19;;;;;;;8.77;7.87;;;37.60;34.80;;;;;;6241462;23;20320;-45
2022/08/26 12:50:49;;;;;;;8.00;7.30;;;36.90;35.70;;;;;;6243873;23;20444;-47
2022/08/26 12:53:39;;;;;;;8.30;7.60;;;36.10;36.20;;;;;;6244325;23;20416;-49
2022/08/26 12:56:19;;;;;;;9.73;8.73;;;35.50;37.50;;;;;;6243453;23;20513;-47
2022/08/26 12:59:06;;;;;;;9.90;8.10;;;35.00;38.10;;;;;;6245764;23;20410;-46
2022/08/26 13:01:43;;;;;;;8.50;7.30;;;34.50;38.80;;;;;;6246373;23;20355;-47